createdAt,value
2022-11-15T00:00:05.734Z,24.9
2022-11-15T00:01:08.243Z,24.9
2022-11-15T00:02:10.508Z,25
2022-11-15T00:03:13.389Z,25
2022-11-15T00:04:15.603Z,24.9
2022-11-15T00:05:17.519Z,24.9
2022-11-15T00:06:19.721Z,25
2022-11-15T00:07:40.701Z,24.9
2022-11-15T00:08:26.971Z,25.1
2022-11-15T00:09:29.181Z,24.8
2022-11-15T00:10:31.376Z,25
2022-11-15T00:11:33.845Z,25.1
2022-11-15T00:12:36.309Z,25.2
2022-11-15T00:13:38.512Z,25.1
2022-11-15T00:14:40.981Z,25.2
2022-11-15T00:15:43.156Z,25.3
2022-11-15T00:16:45.102Z,25.2
2022-11-15T00:17:47.058Z,25.2
2022-11-15T00:18:50.759Z,25.1
2022-11-15T00:19:52.373Z,25.2
2022-11-15T00:20:54.846Z,25.3
2022-11-15T00:21:57.068Z,25.3
2022-11-15T00:22:59.020Z,25.3
2022-11-15T00:24:01.215Z,25.2
2022-11-15T00:25:03.408Z,25.3
2022-11-15T00:26:05.603Z,25.3
2022-11-15T00:27:08.441Z,25.2
2022-11-15T00:28:10.712Z,25
2022-11-15T00:29:13.186Z,25.2
2022-11-15T00:30:15.676Z,25.2
2022-11-15T00:31:18.154Z,25.1
2022-11-15T00:32:20.494Z,25.3
2022-11-15T00:33:22.733Z,25.2
2022-11-15T00:34:24.930Z,25.2
2022-11-15T00:35:26.901Z,25.3
2022-11-15T00:36:28.811Z,25.3
2022-11-15T00:37:31.013Z,25.3
2022-11-15T00:38:33.258Z,25.2
2022-11-15T00:39:35.458Z,25.2
2022-11-15T00:40:37.381Z,25.3
2022-11-15T00:41:39.300Z,25.2
2022-11-15T00:42:41.495Z,25.4
2022-11-15T00:43:43.993Z,25.3
2022-11-15T00:44:46.768Z,25.5
2022-11-15T00:45:49.300Z,25.3
2022-11-15T00:46:51.509Z,25.2
2022-11-15T00:47:54.011Z,25.6
2022-11-15T00:48:56.505Z,25.3
2022-11-15T00:49:58.428Z,25.3
2022-11-15T00:51:00.625Z,25.4
2022-11-15T00:52:03.150Z,25.3
2022-11-15T00:53:05.352Z,25.3
2022-11-15T00:54:07.884Z,25.4
2022-11-15T00:55:10.081Z,25.2
2022-11-15T00:56:12.058Z,25.4
2022-11-15T00:57:13.962Z,25.3
2022-11-15T00:58:16.452Z,25.3
2022-11-15T00:59:18.391Z,25.5
2022-11-15T01:00:20.864Z,25.3
2022-11-15T01:01:23.125Z,25.3
2022-11-15T01:02:26.002Z,25.4
2022-11-15T01:03:28.487Z,25.3
2022-11-15T01:04:32.926Z,25.5
2022-11-15T01:05:35.397Z,25.5
2022-11-15T01:06:37.608Z,25.6
2022-11-15T01:07:40.082Z,25.5
2022-11-15T01:08:41.982Z,25.4
2022-11-15T01:09:44.499Z,25.6
2022-11-15T01:10:46.410Z,25.5
2022-11-15T01:11:48.607Z,25.5
2022-11-15T01:12:50.526Z,25.5
2022-11-15T01:13:52.733Z,25.3
2022-11-15T01:14:55.204Z,25.3
2022-11-15T01:15:57.410Z,25.5
2022-11-15T01:16:59.601Z,25.4
2022-11-15T01:18:01.808Z,25.5
2022-11-15T01:19:04.314Z,25.4
2022-11-15T01:20:07.236Z,25.4
2022-11-15T01:21:09.435Z,25.5
2022-11-15T01:22:11.612Z,25.3
2022-11-15T01:23:14.079Z,25.3
2022-11-15T01:24:16.553Z,25.4
2022-11-15T01:25:18.827Z,25.5
2022-11-15T01:26:21.302Z,25.3
2022-11-15T01:27:23.214Z,25.4
2022-11-15T01:28:25.410Z,25.4
2022-11-15T01:29:27.873Z,25.5
2022-11-15T01:30:30.345Z,25.3
2022-11-15T01:31:32.523Z,25.5
2022-11-15T01:32:34.991Z,25.6
2022-11-15T01:33:37.455Z,25.7
2022-11-15T01:34:39.399Z,25.6
2022-11-15T01:35:41.913Z,25.6
2022-11-15T01:36:44.390Z,25.6
2022-11-15T01:37:46.858Z,25.7
2022-11-15T01:38:49.039Z,25.7
2022-11-15T01:39:51.240Z,25.6
2022-11-15T01:40:53.475Z,25.7
2022-11-15T01:41:55.656Z,25.8
2022-11-15T01:42:57.835Z,25.6
2022-11-15T01:44:00.040Z,25.6
2022-11-15T01:45:02.518Z,25.7
2022-11-15T01:46:04.165Z,25.8
2022-11-15T01:47:06.354Z,25.7
2022-11-15T01:48:08.820Z,25.9
2022-11-15T01:49:11.294Z,25.6
2022-11-15T01:50:13.245Z,25.7
2022-11-15T01:51:15.761Z,25.7
2022-11-15T01:52:18.226Z,25.9
2022-11-15T01:53:20.703Z,25.8
2022-11-15T01:54:23.168Z,25.7
2022-11-15T01:55:25.639Z,25.7
2022-11-15T01:56:28.155Z,25.8
2022-11-15T01:57:30.074Z,25.8
2022-11-15T01:58:32.257Z,25.8
2022-11-15T01:59:34.456Z,25.7
2022-11-15T02:00:36.399Z,25.8
2022-11-15T02:01:39.073Z,25.8
2022-11-15T02:02:41.278Z,25.7
2022-11-15T02:03:43.752Z,25.8
2022-11-15T02:04:45.945Z,25.7
2022-11-15T02:05:48.440Z,25.8
2022-11-15T02:06:51.062Z,25.7
2022-11-15T02:07:53.033Z,25.9
2022-11-15T02:08:55.247Z,25.8
2022-11-15T02:09:57.709Z,25.8
2022-11-15T02:10:59.912Z,25.7
2022-11-15T02:12:02.150Z,25.9
2022-11-15T02:13:04.349Z,26
2022-11-15T02:14:06.536Z,25.9
2022-11-15T02:15:09.020Z,25.8
2022-11-15T02:16:11.186Z,25.9
2022-11-15T02:17:13.095Z,26.1
2022-11-15T02:18:15.297Z,25.7
2022-11-15T02:19:17.770Z,25.8
2022-11-15T02:20:19.968Z,25.9
2022-11-15T02:21:22.172Z,25.7
2022-11-15T02:22:24.694Z,25.8
2022-11-15T02:23:27.177Z,25.8
2022-11-15T02:24:30.734Z,25.9
2022-11-15T02:25:32.933Z,25.8
2022-11-15T02:26:34.847Z,25.8
2022-11-15T02:27:37.389Z,25.9
2022-11-15T02:28:39.579Z,25.8
2022-11-15T02:29:42.057Z,25.9
2022-11-15T02:30:44.524Z,25.8
2022-11-15T02:31:46.738Z,25.7
2022-11-15T02:32:48.930Z,25.9
2022-11-15T02:33:51.154Z,25.8
2022-11-15T02:34:53.348Z,25.9
2022-11-15T02:35:55.820Z,25.7
2022-11-15T02:36:57.211Z,25.9
2022-11-15T02:37:59.730Z,25.9
2022-11-15T02:39:01.659Z,25.8
2022-11-15T02:40:03.605Z,25.8
2022-11-15T02:41:05.776Z,25.9
2022-11-15T02:42:08.252Z,25.9
2022-11-15T02:43:10.775Z,25.9
2022-11-15T02:44:12.964Z,26.1
2022-11-15T02:45:14.895Z,26
2022-11-15T02:46:17.092Z,25.8
2022-11-15T02:47:19.019Z,25.9
2022-11-15T02:48:21.229Z,26
2022-11-15T02:49:23.450Z,26
2022-11-15T02:50:25.645Z,25.8
2022-11-15T02:51:28.138Z,25.9
2022-11-15T02:52:30.358Z,25.8
2022-11-15T02:53:33.216Z,25.9
2022-11-15T02:54:36.291Z,25.8
2022-11-15T02:55:38.490Z,25.8
2022-11-15T02:56:40.957Z,26
2022-11-15T02:57:43.439Z,25.9
2022-11-15T02:58:45.951Z,26
2022-11-15T02:59:48.421Z,26
2022-11-15T03:00:50.659Z,25.8
2022-11-15T03:01:53.171Z,26.1
2022-11-15T03:02:55.343Z,26
2022-11-15T03:03:57.273Z,25.9
2022-11-15T03:04:59.472Z,25.9
2022-11-15T03:06:01.947Z,26
2022-11-15T03:07:04.496Z,26.1
2022-11-15T03:08:06.935Z,25.9
2022-11-15T03:09:09.169Z,26
2022-11-15T03:10:11.376Z,25.9
2022-11-15T03:11:13.028Z,25.9
2022-11-15T03:12:15.494Z,25.9
2022-11-15T03:13:17.965Z,25.9
2022-11-15T03:14:20.502Z,26
2022-11-15T03:15:22.971Z,25.9
2022-11-15T03:16:25.166Z,25.8
2022-11-15T03:17:27.635Z,26
2022-11-15T03:18:30.117Z,25.9
2022-11-15T03:19:32.583Z,25.9
2022-11-15T03:20:35.063Z,25.8
2022-11-15T03:21:37.570Z,25.8
2022-11-15T03:22:40.122Z,26
2022-11-15T03:23:42.610Z,25.9
2022-11-15T03:24:45.145Z,26
2022-11-15T03:25:47.610Z,25.8
2022-11-15T03:26:49.802Z,25.8
2022-11-15T03:27:51.711Z,25.9
2022-11-15T03:28:54.190Z,25.9
2022-11-15T03:29:56.716Z,25.9
2022-11-15T03:30:59.208Z,25.9
2022-11-15T03:32:01.111Z,25.9
2022-11-15T03:33:03.594Z,26
2022-11-15T03:34:06.059Z,26.1
2022-11-15T03:35:08.239Z,25.9
2022-11-15T03:36:10.708Z,25.9
2022-11-15T03:37:12.631Z,25.9
2022-11-15T03:38:14.610Z,25.9
2022-11-15T03:39:20.515Z,25.9
2022-11-15T03:40:21.895Z,25.9
2022-11-15T03:41:24.454Z,25.8
2022-11-15T03:42:26.921Z,25.9
2022-11-15T03:43:29.093Z,26
2022-11-15T03:44:33.368Z,25.9
2022-11-15T03:45:35.907Z,25.9
2022-11-15T03:46:38.486Z,25.9
2022-11-15T03:47:41.175Z,25.9
2022-11-15T03:48:43.695Z,26
2022-11-15T03:49:45.889Z,26
2022-11-15T03:50:47.812Z,26
2022-11-15T03:51:50.293Z,26
2022-11-15T03:52:51.922Z,26
2022-11-15T03:53:54.102Z,26
2022-11-15T03:54:56.329Z,26
2022-11-15T03:55:58.792Z,25.9
2022-11-15T03:57:01.358Z,25.8
2022-11-15T03:58:03.365Z,26.2
2022-11-15T03:59:05.854Z,25.8
2022-11-15T04:00:08.326Z,26
2022-11-15T04:01:10.887Z,26
2022-11-15T04:02:13.530Z,25.9
2022-11-15T04:03:15.433Z,25.9
2022-11-15T04:04:17.647Z,25.9
2022-11-15T04:05:20.117Z,25.8
2022-11-15T04:06:22.585Z,26
2022-11-15T04:07:24.824Z,25.8
2022-11-15T04:08:29.005Z,25.8
2022-11-15T04:09:31.416Z,25.7
2022-11-15T04:10:33.924Z,25.6
2022-11-15T04:11:36.124Z,25.8
2022-11-15T04:12:38.354Z,25.7
2022-11-15T04:13:40.823Z,25.7
2022-11-15T04:14:43.295Z,25.8
2022-11-15T04:15:45.776Z,25.7
2022-11-15T04:16:48.012Z,25.7
2022-11-15T04:17:50.493Z,25.7
2022-11-15T04:18:52.968Z,25.7
2022-11-15T04:19:55.166Z,25.7
2022-11-15T04:20:57.629Z,25.6
2022-11-15T04:22:00.099Z,25.5
2022-11-15T04:23:02.291Z,25.5
2022-11-15T04:24:04.484Z,25.4
2022-11-15T04:25:06.974Z,25.7
2022-11-15T04:26:09.472Z,25.4
2022-11-15T04:27:11.931Z,25.4
2022-11-15T04:28:14.439Z,25.6
2022-11-15T04:29:16.906Z,25.7
2022-11-15T04:30:19.102Z,25.6
2022-11-15T04:31:21.575Z,25.5
2022-11-15T04:32:24.082Z,25.5
2022-11-15T04:33:26.568Z,25.5
2022-11-15T04:34:28.834Z,25.5
2022-11-15T04:35:31.314Z,25.3
2022-11-15T04:36:33.935Z,25.3
2022-11-15T04:37:36.410Z,25.7
2022-11-15T04:38:38.335Z,25.4
2022-11-15T04:39:40.543Z,25.3
2022-11-15T04:40:42.737Z,25.3
2022-11-15T04:41:45.240Z,25.4
2022-11-15T04:42:47.438Z,25.3
2022-11-15T04:43:49.951Z,25.3
2022-11-15T04:44:52.427Z,25.5
2022-11-15T04:45:54.623Z,25.2
2022-11-15T04:46:56.529Z,25.4
2022-11-15T04:47:58.788Z,25.4
2022-11-15T04:49:00.979Z,25.3
2022-11-15T04:50:03.481Z,25.4
2022-11-15T04:51:06.142Z,25.4
2022-11-15T04:52:08.994Z,25.4
2022-11-15T04:53:11.246Z,25.5
2022-11-15T04:54:13.724Z,25.4
2022-11-15T04:55:15.918Z,25.5
2022-11-15T04:56:18.115Z,25.3
2022-11-15T04:57:19.492Z,25.4
2022-11-15T04:58:21.955Z,25.4
2022-11-15T04:59:23.902Z,25.3
2022-11-15T05:00:25.532Z,25.3
2022-11-15T05:01:27.802Z,25.5
2022-11-15T05:02:30.752Z,25.4
2022-11-15T05:03:33.679Z,25.3
2022-11-15T05:04:36.957Z,25.3
2022-11-15T05:05:39.430Z,25.3
2022-11-15T05:06:41.110Z,25.4
2022-11-15T05:07:43.577Z,25.4
2022-11-15T05:08:45.771Z,25.4
2022-11-15T05:09:48.242Z,25.2
2022-11-15T05:10:50.739Z,25.4
2022-11-15T05:11:53.205Z,25.4
2022-11-15T05:12:55.139Z,25.4
2022-11-15T05:13:57.605Z,25.3
2022-11-15T05:14:59.846Z,25.3
2022-11-15T05:16:02.348Z,25.3
2022-11-15T05:17:04.827Z,25.3
2022-11-15T05:18:07.680Z,25.5
2022-11-15T05:19:10.203Z,25.2
2022-11-15T05:20:12.417Z,25.3
2022-11-15T05:21:14.036Z,25.3
2022-11-15T05:22:16.259Z,25.5
2022-11-15T05:23:18.429Z,25.2
2022-11-15T05:24:20.342Z,25.4
2022-11-15T05:25:22.812Z,25.3
2022-11-15T05:26:24.731Z,25.2
2022-11-15T05:27:26.945Z,25.2
2022-11-15T05:28:28.883Z,25.2
2022-11-15T05:29:31.677Z,25.3
2022-11-15T05:30:33.904Z,25.2
2022-11-15T05:31:36.382Z,25.4
2022-11-15T05:32:38.566Z,25.3
2022-11-15T05:33:41.065Z,25.3
2022-11-15T05:34:43.306Z,25.2
2022-11-15T05:35:45.794Z,25.1
2022-11-15T05:36:47.994Z,25.2
2022-11-15T05:37:50.461Z,25.2
2022-11-15T05:38:52.371Z,25.2
2022-11-15T05:39:54.836Z,25.3
2022-11-15T05:40:57.328Z,25.1
2022-11-15T05:41:59.248Z,25.2
2022-11-15T05:43:02.214Z,25.2
2022-11-15T05:44:04.796Z,25.2
2022-11-15T05:45:06.997Z,25.2
2022-11-15T05:46:09.517Z,25.2
2022-11-15T05:47:11.736Z,25.1
2022-11-15T05:48:14.216Z,25.4
2022-11-15T05:49:16.417Z,25.1
2022-11-15T05:50:18.994Z,25.1
2022-11-15T05:51:21.228Z,25.4
2022-11-15T05:52:23.150Z,25.1
2022-11-15T05:53:25.357Z,25.3
2022-11-15T05:54:27.817Z,25.3
2022-11-15T05:55:29.450Z,25
2022-11-15T05:56:31.918Z,25.1
2022-11-15T05:57:33.840Z,25.3
2022-11-15T05:58:36.312Z,25.1
2022-11-15T05:59:38.557Z,25.2
2022-11-15T06:00:40.470Z,25.3
2022-11-15T06:01:43.054Z,25.2
2022-11-15T06:02:45.929Z,25.4
2022-11-15T06:03:48.411Z,25.1
2022-11-15T06:04:50.600Z,25.3
2022-11-15T06:05:53.118Z,25.1
2022-11-15T06:06:55.670Z,25.2
2022-11-15T06:07:58.519Z,25.1
2022-11-15T06:09:00.695Z,25
2022-11-15T06:10:03.415Z,25.2
2022-11-15T06:11:05.619Z,25.2
2022-11-15T06:12:08.090Z,25.1
2022-11-15T06:13:10.009Z,25.2
2022-11-15T06:14:12.201Z,25.1
2022-11-15T06:15:14.700Z,25.3
2022-11-15T06:16:16.896Z,25.3
2022-11-15T06:17:19.125Z,25.1
2022-11-15T06:18:21.341Z,25.2
2022-11-15T06:19:23.531Z,25.2
2022-11-15T06:20:26.013Z,25.2
2022-11-15T06:21:28.317Z,25
2022-11-15T06:22:30.824Z,24.9
2022-11-15T06:23:33.598Z,25.2
2022-11-15T06:24:36.105Z,25.1
2022-11-15T06:25:38.285Z,25.2
2022-11-15T06:26:40.482Z,25.2
2022-11-15T06:27:42.407Z,25.1
2022-11-15T06:28:44.619Z,25.2
2022-11-15T06:29:46.535Z,25.1
2022-11-15T06:30:52.954Z,25
2022-11-15T06:31:53.708Z,25
2022-11-15T06:32:55.665Z,25
2022-11-15T06:33:57.569Z,25
2022-11-15T06:34:59.770Z,25.2
2022-11-15T06:36:01.700Z,25.1
2022-11-15T06:37:04.334Z,25
2022-11-15T06:38:06.532Z,25.1
2022-11-15T06:39:08.483Z,24.9
2022-11-15T06:40:10.379Z,25.1
2022-11-15T06:41:12.573Z,25
2022-11-15T06:42:15.060Z,25.2
2022-11-15T06:43:17.534Z,25.1
2022-11-15T06:44:19.737Z,25.1
2022-11-15T06:45:21.946Z,25.1
2022-11-15T06:46:24.462Z,25
2022-11-15T06:47:26.947Z,25.1
2022-11-15T06:48:29.202Z,25.1
2022-11-15T06:49:31.432Z,24.9
2022-11-15T06:50:33.382Z,25.1
2022-11-15T06:51:35.598Z,25.1
2022-11-15T06:52:38.114Z,25.1
2022-11-15T06:53:40.600Z,25
2022-11-15T06:54:42.801Z,25
2022-11-15T06:55:44.992Z,25
2022-11-15T06:56:46.930Z,25.1
2022-11-15T06:57:49.119Z,25
2022-11-15T06:58:51.085Z,25.1
2022-11-15T06:59:53.266Z,25
2022-11-15T07:00:55.522Z,25.2
2022-11-15T07:01:58.293Z,24.9
2022-11-15T07:03:00.823Z,25.1
2022-11-15T07:04:03.096Z,24.9
2022-11-15T07:05:05.277Z,25
2022-11-15T07:06:07.908Z,25.1
2022-11-15T07:07:10.246Z,25.1
2022-11-15T07:08:13.232Z,25.1
2022-11-15T07:09:15.409Z,25
2022-11-15T07:10:17.902Z,25
2022-11-15T07:11:19.841Z,25
2022-11-15T07:12:21.743Z,25.2
2022-11-15T07:13:23.951Z,25
2022-11-15T07:14:26.442Z,25.1
2022-11-15T07:15:28.656Z,25
2022-11-15T07:16:31.133Z,25
2022-11-15T07:17:33.366Z,25
2022-11-15T07:18:35.033Z,25
2022-11-15T07:19:37.292Z,25.2
2022-11-15T07:20:38.929Z,25
2022-11-15T07:21:41.413Z,25
2022-11-15T07:22:43.057Z,25
2022-11-15T07:23:45.582Z,24.9
2022-11-15T07:24:47.784Z,25
2022-11-15T07:25:49.930Z,25
2022-11-15T07:26:52.464Z,25.1
2022-11-15T07:27:55.742Z,25
2022-11-15T07:28:59.300Z,25
2022-11-15T07:30:01.851Z,24.9
2022-11-15T07:31:04.053Z,25.1
2022-11-15T07:32:05.988Z,24.9
2022-11-15T07:33:08.218Z,25
2022-11-15T07:34:10.454Z,25
2022-11-15T07:35:12.827Z,24.9
2022-11-15T07:36:15.340Z,24.9
2022-11-15T07:37:17.538Z,25
2022-11-15T07:38:20.025Z,25
2022-11-15T07:39:22.666Z,25
2022-11-15T07:40:24.863Z,25.1
2022-11-15T07:41:27.380Z,24.9
2022-11-15T07:42:29.578Z,25
2022-11-15T07:43:32.310Z,24.9
2022-11-15T07:44:36.005Z,25
2022-11-15T07:45:38.492Z,25.1
2022-11-15T07:46:40.711Z,24.9
2022-11-15T07:47:42.915Z,25
2022-11-15T07:48:45.841Z,25.1
2022-11-15T07:49:48.198Z,25
2022-11-15T07:50:50.482Z,24.9
2022-11-15T07:51:52.706Z,25.1
2022-11-15T07:52:54.951Z,25.1
2022-11-15T07:53:56.873Z,25
2022-11-15T07:54:59.475Z,25.1
2022-11-15T07:56:01.684Z,25
2022-11-15T07:57:07.145Z,25.1
2022-11-15T07:58:08.847Z,24.9
2022-11-15T07:59:11.351Z,25
2022-11-15T08:00:13.829Z,25
2022-11-15T08:01:16.250Z,25.1
2022-11-15T08:02:19.239Z,25
2022-11-15T08:03:26.092Z,25
2022-11-15T08:04:28.369Z,25
2022-11-15T08:05:30.273Z,25.1
2022-11-15T08:06:32.523Z,25
2022-11-15T08:07:34.788Z,25
2022-11-15T08:08:37.374Z,25.1
2022-11-15T08:09:38.724Z,24.9
2022-11-15T08:10:41.044Z,24.9
2022-11-15T08:11:43.524Z,25.1
2022-11-15T08:12:45.536Z,24.9
2022-11-15T08:13:48.147Z,25
2022-11-15T08:14:50.339Z,24.9
2022-11-15T08:15:57.479Z,25
2022-11-15T08:16:57.265Z,25
2022-11-15T08:17:59.174Z,25.1
2022-11-15T08:19:01.106Z,24.9
2022-11-15T08:20:03.405Z,25
2022-11-15T08:21:05.934Z,25
2022-11-15T08:22:08.315Z,24.8
2022-11-15T08:23:10.519Z,25
2022-11-15T08:24:12.417Z,25
2022-11-15T08:25:14.618Z,24.9
2022-11-15T08:26:16.872Z,25
2022-11-15T08:27:19.122Z,25
2022-11-15T08:28:21.869Z,25
2022-11-15T08:29:24.336Z,25
2022-11-15T08:30:26.368Z,25
2022-11-15T08:31:28.308Z,25
2022-11-15T08:32:30.783Z,25
2022-11-15T08:33:33.014Z,24.9
2022-11-15T08:34:36.911Z,25
2022-11-15T08:35:39.144Z,25.1
2022-11-15T08:36:45.826Z,25.1
2022-11-15T08:37:46.300Z,25
2022-11-15T08:38:48.879Z,25
2022-11-15T08:39:50.809Z,25
2022-11-15T08:40:52.744Z,25.1
2022-11-15T08:41:55.255Z,24.9
2022-11-15T08:42:57.773Z,25.1
2022-11-15T08:43:59.681Z,25.1
2022-11-15T08:45:01.892Z,25
2022-11-15T08:46:04.381Z,25
2022-11-15T08:47:06.599Z,25
2022-11-15T08:48:09.097Z,24.9
2022-11-15T08:49:11.296Z,25
2022-11-15T08:50:13.801Z,25.1
2022-11-15T08:51:16.022Z,25
2022-11-15T08:52:17.945Z,25.1
2022-11-15T08:53:19.610Z,24.8
2022-11-15T08:54:21.866Z,25
2022-11-15T08:55:24.888Z,25.1
2022-11-15T08:56:26.700Z,25.1
2022-11-15T08:57:28.981Z,24.8
2022-11-15T08:58:31.389Z,25
2022-11-15T08:59:35.777Z,24.9
2022-11-15T09:00:38.268Z,24.9
2022-11-15T09:01:40.835Z,25.1
2022-11-15T09:02:43.650Z,25
2022-11-15T09:03:46.123Z,25.1
2022-11-15T09:04:48.605Z,25
2022-11-15T09:05:51.115Z,24.8
2022-11-15T09:06:53.111Z,25.1
2022-11-15T09:07:55.772Z,25.1
2022-11-15T09:08:58.428Z,24.9
2022-11-15T09:10:01.368Z,24.9
2022-11-15T09:11:04.216Z,25
2022-11-15T09:12:06.152Z,25
2022-11-15T09:13:08.693Z,25.1
2022-11-15T09:14:10.619Z,25
2022-11-15T09:15:13.113Z,25
2022-11-15T09:16:15.296Z,25
2022-11-15T09:17:21.753Z,25
2022-11-15T09:18:22.508Z,25.1
2022-11-15T09:19:25.010Z,25
2022-11-15T09:20:26.946Z,25
2022-11-15T09:21:29.156Z,25
2022-11-15T09:22:31.367Z,25.1
2022-11-15T09:23:33.570Z,24.9
2022-11-15T09:24:35.493Z,25.1
2022-11-15T09:25:38.036Z,24.9
2022-11-15T09:26:40.507Z,25.1
2022-11-15T09:27:42.709Z,24.9
2022-11-15T09:28:44.987Z,24.9
2022-11-15T09:29:47.176Z,25.1
2022-11-15T09:30:49.399Z,25
2022-11-15T09:31:51.890Z,25.1
2022-11-15T09:32:54.373Z,24.9
2022-11-15T09:33:56.577Z,25
2022-11-15T09:34:58.771Z,25.1
2022-11-15T09:36:01.263Z,25
2022-11-15T09:37:02.911Z,25
2022-11-15T09:38:05.230Z,24.9
2022-11-15T09:39:07.148Z,24.8
2022-11-15T09:40:09.419Z,25.1
2022-11-15T09:41:11.947Z,25
2022-11-15T09:42:14.436Z,25
2022-11-15T09:43:16.686Z,24.9
2022-11-15T09:44:25.209Z,25.2
2022-11-15T09:45:24.500Z,25
2022-11-15T09:46:26.708Z,25
2022-11-15T09:47:29.199Z,25
2022-11-15T09:48:31.389Z,25
2022-11-15T09:49:35.689Z,24.9
2022-11-15T09:50:37.893Z,25
2022-11-15T09:51:40.135Z,25.1
2022-11-15T09:52:42.344Z,25.1
2022-11-15T09:54:24.023Z,24.9
2022-11-15T09:54:54.635Z,25
2022-11-15T09:55:54.965Z,25
2022-11-15T09:56:57.271Z,24.9
2022-11-15T09:57:59.583Z,25
2022-11-15T09:59:02.076Z,24.9
2022-11-15T10:00:24.122Z,24.9
2022-11-15T10:01:09.330Z,24.9
2022-11-15T10:02:12.062Z,24.9
2022-11-15T10:03:14.743Z,25
2022-11-15T10:04:16.709Z,25.1
2022-11-15T10:05:20.010Z,24.8
2022-11-15T10:06:21.993Z,24.9
2022-11-15T10:07:24.514Z,25
2022-11-15T10:08:27.129Z,24.9
2022-11-15T10:09:29.441Z,24.9
2022-11-15T10:10:31.919Z,24.9
2022-11-15T10:11:38.820Z,25.1
2022-11-15T10:12:39.374Z,25.1
2022-11-15T10:13:41.649Z,25
2022-11-15T10:14:44.127Z,25
2022-11-15T10:15:50.134Z,25
2022-11-15T10:16:52.692Z,25
2022-11-15T10:17:54.905Z,24.8
2022-11-15T10:18:57.124Z,25
2022-11-15T10:20:04.032Z,25
2022-11-15T10:21:04.592Z,25
2022-11-15T10:22:06.515Z,25
2022-11-15T10:23:08.998Z,25
2022-11-15T10:24:11.475Z,25
2022-11-15T10:25:13.836Z,25
2022-11-15T10:26:16.030Z,24.9
2022-11-15T10:27:18.236Z,24.9
2022-11-15T10:28:20.466Z,24.9
2022-11-15T10:29:26.667Z,25
2022-11-15T10:30:27.715Z,24.9
2022-11-15T10:31:29.908Z,24.8
2022-11-15T10:32:32.151Z,25
2022-11-15T10:33:34.457Z,25
2022-11-15T10:34:36.989Z,24.9
2022-11-15T10:35:39.162Z,25.1
2022-11-15T10:36:45.157Z,24.9
2022-11-15T10:37:46.658Z,25
2022-11-15T10:38:48.906Z,24.8
2022-11-15T10:39:51.378Z,24.8
2022-11-15T10:40:53.607Z,25
2022-11-15T10:41:56.085Z,25.1
2022-11-15T10:42:58.565Z,25
2022-11-15T10:44:01.051Z,25
2022-11-15T10:45:03.275Z,25.1
2022-11-15T10:46:18.763Z,25.1
2022-11-15T10:47:10.462Z,25.1
2022-11-15T10:48:13.093Z,24.9
2022-11-15T10:49:15.657Z,25
2022-11-15T10:50:18.163Z,24.9
2022-11-15T10:51:20.086Z,24.9
2022-11-15T10:52:22.285Z,24.9
2022-11-15T10:53:24.776Z,25
2022-11-15T10:54:26.972Z,24.8
2022-11-15T10:55:28.911Z,25
2022-11-15T10:56:31.438Z,25
2022-11-15T10:57:33.931Z,25
2022-11-15T10:58:36.422Z,25.1
2022-11-15T10:59:39.279Z,24.9
2022-11-15T11:00:41.940Z,25
2022-11-15T11:01:44.192Z,25
2022-11-15T11:02:46.556Z,25
2022-11-15T11:03:48.796Z,24.9
2022-11-15T11:04:51.269Z,24.9
2022-11-15T11:05:53.765Z,25
2022-11-15T11:06:55.206Z,25
2022-11-15T11:07:57.752Z,25
2022-11-15T11:08:59.946Z,24.9
2022-11-15T11:10:02.144Z,25
2022-11-15T11:11:09.141Z,25
2022-11-15T11:12:11.841Z,25
2022-11-15T11:13:14.097Z,25.1
2022-11-15T11:14:16.032Z,25
2022-11-15T11:15:18.245Z,25
2022-11-15T11:16:20.483Z,25
2022-11-15T11:17:22.972Z,25.1
2022-11-15T11:18:24.920Z,25.1
2022-11-15T11:19:27.164Z,25
2022-11-15T11:20:29.422Z,25
2022-11-15T11:21:35.481Z,25
2022-11-15T11:22:36.612Z,24.9
2022-11-15T11:23:38.540Z,25
2022-11-15T11:24:41.017Z,25.1
2022-11-15T11:25:43.499Z,24.9
2022-11-15T11:26:45.714Z,24.8
2022-11-15T11:27:47.654Z,25
2022-11-15T11:28:49.869Z,24.9
2022-11-15T11:29:52.406Z,25.2
2022-11-15T11:30:54.060Z,24.9
2022-11-15T11:31:56.578Z,24.9
2022-11-15T11:32:59.073Z,25
2022-11-15T11:34:01.289Z,24.9
2022-11-15T11:35:03.596Z,25
2022-11-15T11:36:05.790Z,24.9
2022-11-15T11:37:08.009Z,25.1
2022-11-15T11:38:10.494Z,25
2022-11-15T11:39:16.424Z,25.1
2022-11-15T11:40:18.894Z,25
2022-11-15T11:41:21.364Z,25
2022-11-15T11:42:23.565Z,25.1
2022-11-15T11:43:26.082Z,25.1
2022-11-15T11:44:28.277Z,25.1
2022-11-15T11:45:30.483Z,25.1
2022-11-15T11:46:32.682Z,25
2022-11-15T11:47:34.964Z,25
2022-11-15T11:48:37.438Z,25.1
2022-11-15T11:49:39.908Z,25.2
2022-11-15T11:50:42.522Z,25
2022-11-15T11:51:44.722Z,25.1
2022-11-15T11:52:47.038Z,25
2022-11-15T11:53:48.962Z,24.9
2022-11-15T11:54:51.444Z,25
2022-11-15T11:55:53.915Z,25
2022-11-15T11:56:56.421Z,25.3
2022-11-15T11:57:58.628Z,25
2022-11-15T11:59:01.142Z,25
2022-11-15T12:00:03.336Z,25.1
2022-11-15T12:01:08.603Z,25.1
2022-11-15T12:02:10.055Z,25
2022-11-15T12:03:13.191Z,25
2022-11-15T12:04:16.017Z,24.9
2022-11-15T12:05:18.212Z,25.2
2022-11-15T12:06:20.742Z,25
2022-11-15T12:07:22.457Z,25
2022-11-15T12:08:24.965Z,25
2022-11-15T12:09:27.169Z,25.2
2022-11-15T12:10:29.372Z,25
2022-11-15T12:11:31.841Z,25
2022-11-15T12:12:34.405Z,25.1
2022-11-15T12:13:36.609Z,25
2022-11-15T12:14:38.566Z,24.9
2022-11-15T12:15:41.042Z,25.1
2022-11-15T12:16:43.256Z,25
2022-11-15T12:17:45.746Z,25.1
2022-11-15T12:18:48.292Z,25
2022-11-15T12:19:50.497Z,24.9
2022-11-15T12:20:52.700Z,25
2022-11-15T12:21:54.960Z,24.9
2022-11-15T12:22:56.899Z,25.1
2022-11-15T12:23:59.106Z,25
2022-11-15T12:25:01.308Z,25
2022-11-15T12:26:03.728Z,25.1
2022-11-15T12:27:05.970Z,25
2022-11-15T12:28:08.713Z,25
2022-11-15T12:29:11.225Z,25.1
2022-11-15T12:30:13.765Z,25
2022-11-15T12:31:15.950Z,24.9
2022-11-15T12:32:18.437Z,25.1
2022-11-15T12:33:20.358Z,25.1
2022-11-15T12:34:22.883Z,25.1
2022-11-15T12:35:25.427Z,25.1
2022-11-15T12:36:27.343Z,25.1
2022-11-15T12:37:29.925Z,24.9
2022-11-15T12:38:32.722Z,25
2022-11-15T12:39:36.349Z,25.1
2022-11-15T12:40:38.865Z,25
2022-11-15T12:41:41.088Z,25.1
2022-11-15T12:42:42.981Z,25.2
2022-11-15T12:43:45.457Z,25.1
2022-11-15T12:44:47.933Z,24.9
2022-11-15T12:45:49.892Z,25
2022-11-15T12:46:52.096Z,25
2022-11-15T12:47:54.630Z,24.9
2022-11-15T12:48:56.830Z,24.9
2022-11-15T12:49:59.443Z,25
2022-11-15T12:51:01.661Z,25
2022-11-15T12:52:04.181Z,25.1
2022-11-15T12:53:06.147Z,25
2022-11-15T12:54:08.468Z,25
2022-11-15T12:55:09.833Z,25
2022-11-15T12:56:12.376Z,25.2
2022-11-15T12:57:14.868Z,25
2022-11-15T12:58:17.069Z,25.2
2022-11-15T12:59:19.534Z,25
2022-11-15T13:00:25.255Z,24.8
2022-11-15T13:01:27.118Z,25
2022-11-15T13:02:29.610Z,25.1
2022-11-15T13:03:31.523Z,25.1
2022-11-15T13:04:33.752Z,24.9
2022-11-15T13:05:36.281Z,25.1
2022-11-15T13:06:38.764Z,25.1
2022-11-15T13:07:40.786Z,24.9
2022-11-15T13:08:43.005Z,25.1
2022-11-15T13:09:44.676Z,25.1
2022-11-15T13:10:47.186Z,25
2022-11-15T13:11:49.382Z,25
2022-11-15T13:12:51.623Z,25
2022-11-15T13:13:53.837Z,25
2022-11-15T13:14:56.359Z,25.1
2022-11-15T13:15:58.653Z,25
2022-11-15T13:17:00.906Z,25
2022-11-15T13:18:03.372Z,25
2022-11-15T13:19:05.317Z,25.2
2022-11-15T13:20:07.546Z,25.2
2022-11-15T13:21:10.159Z,25
2022-11-15T13:22:12.355Z,25
2022-11-15T13:23:14.838Z,25
2022-11-15T13:24:17.083Z,25
2022-11-15T13:25:19.008Z,25
2022-11-15T13:26:21.614Z,25
2022-11-15T13:27:23.803Z,25
2022-11-15T13:28:26.282Z,25.2
2022-11-15T13:29:28.769Z,25
2022-11-15T13:30:30.966Z,24.9
2022-11-15T13:31:33.161Z,25.1
2022-11-15T13:32:35.664Z,25
2022-11-15T13:33:37.836Z,25.1
2022-11-15T13:34:55.493Z,25.1
2022-11-15T13:35:45.039Z,25.1
2022-11-15T13:36:47.263Z,25.2
2022-11-15T13:37:49.745Z,25.1
2022-11-15T13:38:51.953Z,25.1
2022-11-15T13:39:54.489Z,25
2022-11-15T13:40:56.961Z,25
2022-11-15T13:41:59.457Z,24.9
2022-11-15T13:43:01.922Z,25.1
2022-11-15T13:44:04.434Z,24.8
2022-11-15T13:45:06.653Z,25
2022-11-15T13:46:08.851Z,25
2022-11-15T13:47:11.338Z,25.1
2022-11-15T13:48:13.571Z,25.1
2022-11-15T13:49:16.055Z,24.9
2022-11-15T13:50:17.995Z,25.2
2022-11-15T13:51:20.206Z,25
2022-11-15T13:52:22.764Z,25
2022-11-15T13:53:25.236Z,25.1
2022-11-15T13:54:27.786Z,25.1
2022-11-15T13:55:30.263Z,25.1
2022-11-15T13:56:32.756Z,25
2022-11-15T13:57:34.997Z,25.1
2022-11-15T13:58:37.753Z,25.1
2022-11-15T13:59:40.335Z,25
2022-11-15T14:00:42.554Z,25
2022-11-15T14:01:45.167Z,25
2022-11-15T14:02:47.097Z,25.1
2022-11-15T14:03:49.592Z,24.9
2022-11-15T14:04:51.493Z,25
2022-11-15T14:05:53.964Z,25
2022-11-15T14:06:56.214Z,25.1